createdAt,value
2022-12-18T00:00:09.304Z,99181.72
2022-12-18T00:02:37.839Z,99182.69
2022-12-18T00:05:07.758Z,99179.94
2022-12-18T00:07:35.893Z,99183.03
2022-12-18T00:10:04.310Z,99183.03
2022-12-18T00:12:32.534Z,99184.56
2022-12-18T00:15:01.058Z,99187.09
2022-12-18T00:17:30.711Z,99190.75
2022-12-18T00:19:58.822Z,99180.53
2022-12-18T00:22:26.597Z,99186.97
2022-12-18T00:24:54.421Z,99181.81
2022-12-18T00:27:22.745Z,99176.94
2022-12-18T00:29:51.069Z,99188.56
2022-12-18T00:32:19.059Z,99190.25
2022-12-18T00:34:48.562Z,99188.94
2022-12-18T00:37:20.187Z,99192.44
2022-12-18T00:39:51.210Z,99191.00
2022-12-18T00:42:36.652Z,99181.81
2022-12-18T00:45:09.181Z,99185.41
2022-12-18T00:47:40.319Z,99183.44
2022-12-18T00:50:11.778Z,99197.38
2022-12-18T00:52:43.616Z,99187.28
2022-12-18T00:55:12.970Z,99199.81
2022-12-18T00:57:42.974Z,99190.91
2022-12-18T01:00:15.040Z,99179.47
2022-12-18T01:02:43.672Z,99173.53
2022-12-18T01:05:14.880Z,99171.72
2022-12-18T01:07:43.208Z,99182.94
2022-12-18T01:10:13.780Z,99180.31
2022-12-18T01:12:41.910Z,99186.16
2022-12-18T01:15:11.902Z,99189.59
2022-12-18T01:17:39.702Z,99181.97
2022-12-18T01:20:11.146Z,99183.75
2022-12-18T01:22:40.674Z,99191.63
2022-12-18T01:25:09.981Z,99197.81
2022-12-18T01:27:38.212Z,99196.03
2022-12-18T01:30:07.199Z,99199.34
2022-12-18T01:32:35.416Z,99204.31
2022-12-18T01:35:04.295Z,99213.34
2022-12-18T01:37:33.053Z,99220.81
2022-12-18T01:40:02.708Z,99211.91
2022-12-18T01:42:30.538Z,99201.91
2022-12-18T01:45:05.790Z,99204.16
2022-12-18T01:47:38.784Z,99204.03
2022-12-18T01:50:11.169Z,99209.38
2022-12-18T01:52:43.939Z,99195.78
2022-12-18T01:55:15.393Z,99203.63
2022-12-18T01:57:43.924Z,99195.19
2022-12-18T02:00:15.015Z,99200.09
2022-12-18T02:02:45.160Z,99207.31
2022-12-18T02:05:15.470Z,99205.66
2022-12-18T02:07:51.749Z,99207.66
2022-12-18T02:10:26.850Z,99198.75
2022-12-18T02:13:00.798Z,99188.72
2022-12-18T02:15:36.613Z,99183.25
2022-12-18T02:18:10.875Z,99193.13
2022-12-18T02:20:43.948Z,99203.25
2022-12-18T02:23:24.179Z,99207.66
2022-12-18T02:26:13.300Z,99212.16
2022-12-18T02:28:46.636Z,99218.34
2022-12-18T02:31:25.985Z,99222.63
2022-12-18T02:34:00.772Z,99222.50
2022-12-18T02:36:30.814Z,99220.56
2022-12-18T02:39:01.163Z,99204.97
2022-12-18T02:41:32.594Z,99209.03
2022-12-18T02:44:02.615Z,99209.25
2022-12-18T02:46:37.279Z,99215.72
2022-12-18T02:49:14.340Z,99219.91
2022-12-18T02:51:53.487Z,99232.44
2022-12-18T02:54:31.042Z,99225.19
2022-12-18T02:57:08.500Z,99214.00
2022-12-18T02:59:43.274Z,99224.28
2022-12-18T03:02:21.973Z,99232.56
2022-12-18T03:04:55.713Z,99232.41
2022-12-18T03:07:35.679Z,99230.94
2022-12-18T03:10:04.004Z,99240.78
2022-12-18T03:12:40.212Z,99235.38
2022-12-18T03:15:17.597Z,99236.81
2022-12-18T03:17:52.171Z,99229.72
2022-12-18T03:20:23.955Z,99235.66
2022-12-18T03:22:55.465Z,99235.22
2022-12-18T03:25:24.750Z,99239.09
2022-12-18T03:27:58.382Z,99237.69
2022-12-18T03:30:28.627Z,99240.22
2022-12-18T03:33:03.046Z,99236.88
2022-12-18T03:35:34.306Z,99241.16
2022-12-18T03:38:02.195Z,99238.88
2022-12-18T03:40:38.163Z,99246.00
2022-12-18T03:43:12.759Z,99244.41
2022-12-18T03:45:45.522Z,99253.63
2022-12-18T03:48:20.218Z,99253.28
2022-12-18T03:50:55.618Z,99259.03
2022-12-18T03:53:30.988Z,99250.97
2022-12-18T03:56:01.779Z,99246.06
2022-12-18T03:58:33.814Z,99235.81
2022-12-18T04:01:06.568Z,99234.97
2022-12-18T04:03:36.486Z,99231.41
2022-12-18T04:06:05.556Z,99236.31
2022-12-18T04:08:35.855Z,99233.19
2022-12-18T04:11:04.683Z,99231.53
2022-12-18T04:13:38.256Z,99231.19
2022-12-18T04:16:07.624Z,99241.78
2022-12-18T04:18:36.770Z,99230.34
2022-12-18T04:21:04.896Z,99232.69
2022-12-18T04:23:32.973Z,99232.78
2022-12-18T04:26:00.918Z,99236.47
2022-12-18T04:28:29.096Z,99247.75
2022-12-18T04:30:58.319Z,99246.50
2022-12-18T04:33:27.248Z,99245.78
2022-12-18T04:35:55.095Z,99247.13
2022-12-18T04:38:23.283Z,99248.38
2022-12-18T04:40:51.467Z,99244.31
2022-12-18T04:43:20.119Z,99249.44
2022-12-18T04:45:48.050Z,99260.94
2022-12-18T04:48:17.291Z,99249.66
2022-12-18T04:50:45.192Z,99257.28
2022-12-18T04:53:13.255Z,99252.56
2022-12-18T04:55:41.035Z,99252.56
2022-12-18T04:58:09.451Z,99245.66
2022-12-18T05:00:37.471Z,99252.50
2022-12-18T05:03:05.359Z,99254.81
2022-12-18T05:05:36.888Z,99247.69
2022-12-18T05:08:04.983Z,99236.91
2022-12-18T05:10:38.037Z,99254.28
2022-12-18T05:13:06.380Z,99243.59
2022-12-18T05:15:35.322Z,99248.59
2022-12-18T05:18:04.664Z,99244.00
2022-12-18T05:20:34.964Z,99244.59
2022-12-18T05:23:02.999Z,99244.50
2022-12-18T05:25:30.768Z,99241.66
2022-12-18T05:27:59.101Z,99244.34
2022-12-18T05:30:28.517Z,99247.41
2022-12-18T05:32:59.071Z,99231.97
2022-12-18T05:35:27.280Z,99241.50
2022-12-18T05:37:56.790Z,99234.84
2022-12-18T05:40:24.963Z,99239.38
2022-12-18T05:42:53.059Z,99236.88
2022-12-18T05:45:21.319Z,99254.84
2022-12-18T05:47:49.534Z,99249.28
2022-12-18T05:50:17.787Z,99239.84
2022-12-18T05:52:45.893Z,99246.75
2022-12-18T05:55:15.441Z,99249.59
2022-12-18T05:57:43.256Z,99257.97
2022-12-18T06:00:13.046Z,99268.22
2022-12-18T06:02:41.004Z,99264.53
2022-12-18T06:05:10.038Z,99264.09
2022-12-18T06:07:37.782Z,99260.53
2022-12-18T06:10:06.608Z,99251.22
2022-12-18T06:12:35.789Z,99251.22
2022-12-18T06:15:04.032Z,99247.88
2022-12-18T06:17:34.962Z,99254.91
2022-12-18T06:20:03.574Z,99271.44
2022-12-18T06:22:33.606Z,99261.59
2022-12-18T06:25:01.396Z,99272.06
2022-12-18T06:27:29.387Z,99262.31
2022-12-18T06:29:58.842Z,99261.34
2022-12-18T06:32:27.020Z,99260.84
2022-12-18T06:34:56.386Z,99270.16
2022-12-18T06:37:27.030Z,99269.09
2022-12-18T06:39:55.403Z,99263.03
2022-12-18T06:42:26.200Z,99258.19
2022-12-18T06:44:54.694Z,99262.69
2022-12-18T06:47:23.879Z,99257.44
2022-12-18T06:49:51.724Z,99269.16
2022-12-18T06:52:21.773Z,99270.22
2022-12-18T06:54:49.863Z,99260.47
2022-12-18T06:57:17.662Z,99266.09
2022-12-18T06:59:46.139Z,99272.50
2022-12-18T07:02:15.262Z,99273.00
2022-12-18T07:04:44.844Z,99287.41
2022-12-18T07:07:13.143Z,99295.38
2022-12-18T07:09:41.169Z,99288.69
2022-12-18T07:12:09.054Z,99287.88
2022-12-18T07:14:37.315Z,99287.88
2022-12-18T07:17:05.827Z,99295.72
2022-12-18T07:19:34.593Z,99297.50
2022-12-18T07:22:04.355Z,99298.00
2022-12-18T07:24:32.828Z,99303.84
2022-12-18T07:27:00.949Z,99302.41
2022-12-18T07:29:29.528Z,99302.41
2022-12-18T07:31:57.358Z,99304.19
2022-12-18T07:34:25.469Z,99310.88
2022-12-18T07:36:53.529Z,99310.88
2022-12-18T07:39:22.717Z,99318.75
2022-12-18T07:42:11.110Z,99314.22
2022-12-18T07:44:39.902Z,99326.25
2022-12-18T07:47:11.965Z,99323.41
2022-12-18T07:49:40.877Z,99313.78
2022-12-18T07:52:09.455Z,99319.00
2022-12-18T07:54:38.799Z,99319.75
2022-12-18T07:57:21.278Z,99319.66
2022-12-18T07:59:58.254Z,99322.28
2022-12-18T08:02:26.604Z,99322.28
2022-12-18T08:04:55.011Z,99330.88
2022-12-18T08:07:22.798Z,99331.56
2022-12-18T08:09:52.487Z,99325.72
2022-12-18T08:12:20.421Z,99333.47
2022-12-18T08:14:48.201Z,99331.34
2022-12-18T08:17:16.556Z,99325.03
2022-12-18T08:19:44.575Z,99324.09
2022-12-18T08:22:12.476Z,99327.09
2022-12-18T08:24:40.854Z,99331.88
2022-12-18T08:29:58.592Z,99320.09
2022-12-18T08:32:27.637Z,99327.59
2022-12-18T08:34:56.162Z,99331.44
2022-12-18T08:37:24.622Z,99333.81
2022-12-18T08:39:52.620Z,99329.19
2022-12-18T08:42:39.613Z,99333.13
2022-12-18T08:45:08.496Z,99328.47
2022-12-18T08:47:36.767Z,99325.16
2022-12-18T08:50:07.140Z,99330.38
2022-12-18T08:52:35.436Z,99329.53
2022-12-18T08:55:03.311Z,99324.88
2022-12-18T08:57:33.039Z,99330.97
2022-12-18T09:00:01.203Z,99331.09
2022-12-18T09:02:29.633Z,99328.22
2022-12-18T09:04:58.379Z,99322.72
2022-12-18T09:07:26.249Z,99324.88
2022-12-18T09:09:54.473Z,99312.94
2022-12-18T09:12:22.312Z,99311.59
2022-12-18T09:14:51.531Z,99303.38
2022-12-18T09:17:19.809Z,99305.50
2022-12-18T09:19:47.650Z,99306.66
2022-12-18T09:22:15.698Z,99301.72
2022-12-18T09:24:44.162Z,99307.06
2022-12-18T09:27:12.205Z,99306.56
2022-12-18T09:29:40.339Z,99299.63
2022-12-18T09:32:10.159Z,99299.94
2022-12-18T09:34:37.955Z,99293.94
2022-12-18T09:37:06.290Z,99290.78
2022-12-18T09:39:34.200Z,99289.31
2022-12-18T09:42:02.102Z,99284.94
2022-12-18T09:44:41.455Z,99279.59
2022-12-18T09:47:18.268Z,99284.22
2022-12-18T09:49:48.970Z,99275.81
2022-12-18T09:52:22.492Z,99279.47
2022-12-18T09:54:55.223Z,99278.69
2022-12-18T09:57:25.482Z,99283.41
2022-12-18T09:59:57.090Z,99276.25
2022-12-18T10:02:28.626Z,99272.00
2022-12-18T10:05:08.305Z,99266.75
2022-12-18T10:07:49.708Z,99270.25
2022-12-18T10:10:29.836Z,99271.09
2022-12-18T10:13:08.933Z,99271.69
2022-12-18T10:15:46.879Z,99274.19
2022-12-18T10:18:33.313Z,99267.84
2022-12-18T10:21:09.679Z,99263.69
2022-12-18T10:23:48.403Z,99267.84
2022-12-18T10:26:17.892Z,99267.53
2022-12-18T10:28:47.191Z,99271.44
2022-12-18T10:31:18.261Z,99275.19
2022-12-18T10:33:47.841Z,99282.13
2022-12-18T10:36:16.982Z,99278.09
2022-12-18T10:38:45.898Z,99275.69
2022-12-18T10:41:29.534Z,99271.19
2022-12-18T10:44:21.654Z,99273.09
2022-12-18T10:46:52.648Z,99278.78
2022-12-18T10:49:26.777Z,99279.47
2022-12-18T10:52:09.367Z,99290.44
2022-12-18T10:54:38.954Z,99295.84
2022-12-18T10:57:18.136Z,99284.56
2022-12-18T10:59:53.842Z,99289.41
2022-12-18T11:02:30.717Z,99297.31
2022-12-18T11:05:00.752Z,99288.03
2022-12-18T11:07:50.347Z,99274.91
2022-12-18T11:10:21.455Z,99274.22
2022-12-18T11:12:49.501Z,99270.19
2022-12-18T11:15:24.204Z,99276.41
2022-12-18T11:17:54.978Z,99259.94
2022-12-18T11:20:33.197Z,99262.81
2022-12-18T11:23:02.943Z,99262.22
2022-12-18T11:25:34.421Z,99249.38
2022-12-18T11:28:06.442Z,99244.19
2022-12-18T11:30:35.906Z,99242.97
2022-12-18T11:33:08.156Z,99237.78
2022-12-18T11:36:00.359Z,99239.91
2022-12-18T11:38:31.361Z,99225.25
2022-12-18T11:41:04.236Z,99232.28
2022-12-18T11:43:36.513Z,99237.09
2022-12-18T11:46:08.103Z,99233.47
2022-12-18T11:48:45.224Z,99234.97
2022-12-18T11:51:26.213Z,99227.13
2022-12-18T11:53:56.419Z,99215.94
2022-12-18T11:56:34.557Z,99210.88
2022-12-18T11:59:16.339Z,99212.69
2022-12-18T12:01:52.114Z,99214.06
2022-12-18T12:04:44.657Z,99220.69
2022-12-18T12:07:26.207Z,99213.69
2022-12-18T12:10:06.870Z,99221.16
2022-12-18T12:12:50.332Z,99203.41
2022-12-18T12:15:31.607Z,99192.75
2022-12-18T12:18:11.129Z,99193.03
2022-12-18T12:20:50.096Z,99188.97
2022-12-18T12:23:28.766Z,99184.72
2022-12-18T12:26:04.436Z,99189.56
2022-12-18T12:28:53.162Z,99193.97
2022-12-18T12:31:31.646Z,99193.81
2022-12-18T12:34:10.090Z,99193.56
2022-12-18T12:36:51.407Z,99195.78
2022-12-18T12:39:25.621Z,99196.44
2022-12-18T12:42:15.186Z,99191.22
2022-12-18T12:44:57.166Z,99193.66
2022-12-18T12:47:31.216Z,99204.06
2022-12-18T12:50:01.560Z,99192.50
2022-12-18T12:52:37.286Z,99205.06
2022-12-18T12:55:15.665Z,99202.41
2022-12-18T12:57:51.356Z,99206.50
2022-12-18T13:00:21.405Z,99192.75
2022-12-18T13:03:01.151Z,99198.34
2022-12-18T13:05:36.184Z,99195.25
2022-12-18T13:08:07.626Z,99202.50
2022-12-18T13:10:38.813Z,99205.44
2022-12-18T13:16:07.125Z,99207.47
2022-12-18T13:18:36.026Z,99196.06
2022-12-18T13:21:11.517Z,99204.44
2022-12-18T13:23:42.890Z,99204.59
2022-12-18T13:26:34.366Z,99200.44
2022-12-18T13:29:05.174Z,99205.19
2022-12-18T13:32:10.860Z,99210.56
2022-12-18T13:34:39.284Z,99213.66
2022-12-18T13:37:46.138Z,99205.63
2022-12-18T13:40:59.892Z,99192.28
2022-12-18T13:43:42.570Z,99200.84
2022-12-18T13:46:31.726Z,99196.88
2022-12-18T13:49:04.915Z,99193.56
2022-12-18T13:51:36.007Z,99183.97
2022-12-18T13:54:17.303Z,99180.00
2022-12-18T13:56:47.647Z,99176.66
2022-12-18T13:59:23.067Z,99185.19
2022-12-18T14:01:56.015Z,99189.50
2022-12-18T14:04:29.069Z,99186.06
2022-12-18T14:07:04.052Z,99197.56
2022-12-18T14:09:37.807Z,99183.19
2022-12-18T14:12:25.822Z,99196.53
2022-12-18T14:14:55.582Z,99199.78
2022-12-18T14:17:25.122Z,99197.41
2022-12-18T14:19:55.545Z,99203.16
2022-12-18T14:22:28.817Z,99206.75
2022-12-18T14:25:17.672Z,99205.69
2022-12-18T14:27:47.928Z,99211.41
2022-12-18T14:30:42.561Z,99213.38
2022-12-18T14:33:12.808Z,99213.13
2022-12-18T14:35:43.530Z,99222.78
2022-12-18T14:38:24.618Z,99216.13
2022-12-18T14:40:58.780Z,99209.06
2022-12-18T14:43:26.853Z,99211.28
2022-12-18T14:45:57.373Z,99213.66
2022-12-18T14:48:37.534Z,99210.75
2022-12-18T14:51:07.816Z,99199.09
2022-12-18T14:53:40.975Z,99201.34
2022-12-18T14:56:18.821Z,99208.16
2022-12-18T14:58:49.448Z,99212.31
2022-12-18T15:01:25.176Z,99211.63
2022-12-18T15:03:54.839Z,99211.66
2022-12-18T15:06:34.940Z,99207.22
2022-12-18T15:09:07.945Z,99208.19
2022-12-18T15:11:45.674Z,99209.72
2022-12-18T15:14:34.560Z,99199.72
2022-12-18T15:17:07.139Z,99212.59
2022-12-18T15:19:40.837Z,99211.50
2022-12-18T15:22:22.500Z,99214.97
2022-12-18T15:24:50.922Z,99210.09
2022-12-18T15:27:29.691Z,99206.06
2022-12-18T15:30:24.579Z,99202.88
2022-12-18T15:32:55.576Z,99204.94
2022-12-18T15:35:25.853Z,99206.19
2022-12-18T15:37:54.580Z,99209.94
2022-12-18T15:40:25.077Z,99186.38
2022-12-18T15:43:14.264Z,99193.84
2022-12-18T15:45:42.120Z,99196.06
2022-12-18T15:48:22.561Z,99192.03
2022-12-18T15:50:54.696Z,99198.69
2022-12-18T15:53:23.213Z,99198.16
2022-12-18T15:56:08.757Z,99195.66
2022-12-18T15:58:37.136Z,99199.66
2022-12-18T16:01:05.250Z,99199.91
2022-12-18T16:03:34.621Z,99205.06
2022-12-18T16:06:04.699Z,99201.59
2022-12-18T16:08:32.761Z,99210.19
2022-12-18T16:11:02.173Z,99209.06
2022-12-18T16:13:30.499Z,99206.16
2022-12-18T16:15:59.022Z,99210.03
2022-12-18T16:18:28.004Z,99211.94
2022-12-18T16:20:57.637Z,99198.34
2022-12-18T16:23:25.537Z,99210.13
2022-12-18T16:25:53.695Z,99200.00
2022-12-18T16:28:22.471Z,99198.31
2022-12-18T16:30:50.320Z,99197.22
2022-12-18T16:33:18.303Z,99204.81
2022-12-18T16:35:54.271Z,99191.53
2022-12-18T16:38:23.554Z,99192.63
2022-12-18T16:41:09.500Z,99190.97
2022-12-18T16:43:37.688Z,99192.88
2022-12-18T16:46:05.678Z,99185.69
2022-12-18T16:48:33.777Z,99194.16
2022-12-18T16:51:05.308Z,99184.16
2022-12-18T16:53:36.092Z,99188.59
2022-12-18T16:56:04.629Z,99191.34
2022-12-18T16:58:34.785Z,99190.38
2022-12-18T17:01:03.059Z,99194.94
2022-12-18T17:03:31.376Z,99195.78
2022-12-18T17:06:04.760Z,99187.88
2022-12-18T17:08:32.758Z,99192.06
2022-12-18T17:11:08.367Z,99192.63
2022-12-18T17:13:37.854Z,99197.88
2022-12-18T17:16:06.983Z,99191.38
2022-12-18T17:18:36.232Z,99179.75
2022-12-18T17:21:06.060Z,99183.50
2022-12-18T17:23:33.878Z,99180.88
2022-12-18T17:26:03.130Z,99179.47
2022-12-18T17:28:32.684Z,99178.75
2022-12-18T17:31:00.725Z,99170.75
2022-12-18T17:33:29.320Z,99171.84
2022-12-18T17:36:00.445Z,99162.44
2022-12-18T17:38:28.459Z,99170.75
2022-12-18T17:40:56.922Z,99163.81
2022-12-18T17:43:24.759Z,99158.53
2022-12-18T17:45:54.150Z,99163.81
2022-12-18T17:48:23.924Z,99174.50
2022-12-18T17:50:52.474Z,99173.22
2022-12-18T17:53:21.815Z,99171.31
2022-12-18T17:55:56.715Z,99179.34
2022-12-18T17:58:24.749Z,99180.72
2022-12-18T18:00:54.056Z,99178.38
2022-12-18T18:03:23.063Z,99178.09
2022-12-18T18:05:56.050Z,99174.78
2022-12-18T18:08:24.368Z,99165.78
2022-12-18T18:10:52.400Z,99172.88
2022-12-18T18:13:46.430Z,99170.06
2022-12-18T18:16:16.180Z,99174.63
2022-12-18T18:18:44.490Z,99164.09
2022-12-18T18:21:12.429Z,99160.50
2022-12-18T18:23:43.060Z,99161.34
2022-12-18T18:26:13.260Z,99168.28
2022-12-18T18:28:41.344Z,99165.38
2022-12-18T18:31:10.848Z,99164.69
2022-12-18T18:33:40.806Z,99159.53
2022-12-18T18:36:12.569Z,99154.72
2022-12-18T18:38:46.753Z,99166.06
2022-12-18T18:41:16.692Z,99152.78
2022-12-18T18:43:45.145Z,99147.09
2022-12-18T18:46:14.919Z,99143.66
2022-12-18T18:48:44.154Z,99152.38
2022-12-18T18:51:19.563Z,99137.16
2022-12-18T18:53:51.473Z,99133.13
2022-12-18T18:59:11.332Z,99137.97
2022-12-18T19:01:39.979Z,99134.66
2022-12-18T19:04:09.575Z,99125.91
2022-12-18T19:06:37.831Z,99126.06
2022-12-18T19:09:07.402Z,99133.13
2022-12-18T19:11:52.770Z,99132.72
2022-12-18T19:14:21.608Z,99138.66
2022-12-18T19:16:49.427Z,99136.03
2022-12-18T19:19:23.146Z,99137.00
2022-12-18T19:21:51.590Z,99136.03
2022-12-18T19:24:21.420Z,99136.03
2022-12-18T19:26:51.937Z,99134.25
2022-12-18T19:29:20.275Z,99139.50
2022-12-18T19:31:48.134Z,99146.16
2022-12-18T19:34:18.355Z,99138.41
2022-12-18T19:36:47.215Z,99153.22
2022-12-18T19:39:19.430Z,99149.50
2022-12-18T19:41:48.408Z,99127.72
2022-12-18T19:44:18.408Z,99126.75
2022-12-18T19:46:47.486Z,99129.25
2022-12-18T19:49:16.750Z,99115.00
2022-12-18T19:51:47.317Z,99111.53
2022-12-18T19:54:18.323Z,99111.53
2022-12-18T19:56:47.271Z,99109.88
2022-12-18T19:59:15.455Z,99103.63
2022-12-18T20:01:44.742Z,99106.25
2022-12-18T20:04:13.005Z,99095.59
2022-12-18T20:06:51.364Z,99091.72
2022-12-18T20:09:20.000Z,99081.00
2022-12-18T20:11:49.614Z,99086.00
2022-12-18T20:14:19.666Z,99086.97
2022-12-18T20:16:52.600Z,99085.03
2022-12-18T20:19:22.185Z,99078.78
2022-12-18T20:21:52.370Z,99079.50
2022-12-18T20:24:22.023Z,99074.78
2022-12-18T20:26:50.544Z,99072.16
2022-12-18T20:29:19.135Z,99072.97
2022-12-18T20:31:47.044Z,99063.97
2022-12-18T20:34:14.887Z,99056.22
2022-12-18T20:36:44.364Z,99052.59
2022-12-18T20:39:14.396Z,99057.03
2022-12-18T20:41:44.223Z,99041.22
2022-12-18T20:44:22.455Z,99034.72
2022-12-18T20:46:52.714Z,99033.19
2022-12-18T20:49:21.388Z,99025.00
2022-12-18T20:51:51.947Z,99026.94
2022-12-18T20:54:26.290Z,99028.06
2022-12-18T20:56:54.361Z,99022.25
2022-12-18T20:59:23.361Z,99027.09
2022-12-18T21:01:53.532Z,99030.28
2022-12-18T21:04:22.825Z,99049.69
2022-12-18T21:07:00.501Z,99046.09
2022-12-18T21:09:38.188Z,99058.56
2022-12-18T21:12:25.854Z,99060.22
2022-12-18T21:14:54.308Z,99062.44
2022-12-18T21:17:22.198Z,99050.53
2022-12-18T21:19:50.090Z,99047.19
2022-12-18T21:22:18.742Z,99032.38
2022-12-18T21:24:50.656Z,99001.03
2022-12-18T21:27:18.889Z,99031.66
2022-12-18T21:29:47.474Z,99043.19
2022-12-18T21:32:15.516Z,99051.91
2022-12-18T21:34:47.988Z,99058.28
2022-12-18T21:37:16.518Z,99049.56
2022-12-18T21:39:44.921Z,99041.66
2022-12-18T21:42:31.623Z,99041.38
2022-12-18T21:45:00.255Z,99043.03
2022-12-18T21:47:28.287Z,99046.22
2022-12-18T21:49:56.055Z,99049.69
2022-12-18T21:52:31.582Z,99032.78
2022-12-18T21:55:06.243Z,99044.16
2022-12-18T21:57:38.448Z,99064.09
2022-12-18T22:00:07.827Z,99048.16
2022-12-18T22:02:36.057Z,99049.97
2022-12-18T22:05:06.703Z,99049.00
2022-12-18T22:07:35.714Z,99037.06
2022-12-18T22:10:03.610Z,99038.03
2022-12-18T22:12:44.550Z,99021.25
2022-12-18T22:15:18.313Z,99014.03
2022-12-18T22:17:55.210Z,99015.41
2022-12-18T22:20:30.018Z,99016.38
2022-12-18T22:22:58.258Z,99025.13
2022-12-18T22:25:26.249Z,99020.69
2022-12-18T22:28:08.356Z,99027.63
2022-12-18T22:30:37.875Z,99022.34
2022-12-18T22:33:06.143Z,99022.06
2022-12-18T22:35:34.727Z,99028.31
2022-12-18T22:38:02.835Z,99028.44
2022-12-18T22:40:30.890Z,99028.16
2022-12-18T22:42:59.171Z,99012.94
2022-12-18T22:45:27.918Z,99014.03
2022-12-18T22:47:57.227Z,99014.72
2022-12-18T22:50:25.344Z,99011.41
2022-12-18T22:52:53.511Z,99016.53
2022-12-18T22:55:21.308Z,99009.47
2022-12-18T22:57:50.972Z,99015.56
2022-12-18T23:00:24.189Z,99019.84
2022-12-18T23:02:59.958Z,99018.75
2022-12-18T23:05:32.259Z,99015.69
2022-12-18T23:08:00.819Z,99022.47
2022-12-18T23:10:29.193Z,99026.75
2022-12-18T23:12:58.322Z,99023.44
2022-12-18T23:15:28.342Z,99023.31
2022-12-18T23:17:57.842Z,99029.25
2022-12-18T23:20:26.675Z,99044.09
2022-12-18T23:22:56.167Z,99033.13
2022-12-18T23:25:25.030Z,99033.28
2022-12-18T23:27:53.131Z,99031.47
2022-12-18T23:30:21.166Z,99030.50
2022-12-18T23:32:49.067Z,99027.03
2022-12-18T23:35:17.377Z,99024.25
2022-12-18T23:38:01.204Z,99025.09
2022-12-18T23:40:31.568Z,99021.34
2022-12-18T23:43:00.590Z,99014.25
2022-12-18T23:45:28.478Z,99021.03
2022-12-18T23:47:57.013Z,99021.88
2022-12-18T23:50:28.846Z,99023.41
2022-12-18T23:53:02.101Z,99024.91
2022-12-18T23:55:38.545Z,99019.34
2022-12-18T23:58:06.863Z,99021.00
